sensor_id;sensor_type;location;lat;lon;timestamp;P1;durP1;ratioP1;P2;durP2;ratioP2
17528;SDS011;8882;53.192;8.184;2023-01-26T05:31:25;16.97;;;7.00;;
17528;SDS011;8882;53.192;8.184;2023-01-26T05:33:50;12.53;;;6.17;;
17528;SDS011;8882;53.192;8.184;2023-01-26T05:36:16;15.20;;;6.30;;
17528;SDS011;8882;53.192;8.184;2023-01-26T05:38:41;12.67;;;5.70;;
17528;SDS011;8882;53.192;8.184;2023-01-26T05:41:07;16.90;;;6.77;;
17528;SDS011;8882;53.192;8.184;2023-01-26T05:43:32;13.40;;;6.83;;
17528;SDS011;8882;53.192;8.184;2023-01-26T05:45:58;15.43;;;6.53;;
17528;SDS011;8882;53.192;8.184;2023-01-26T05:48:23;12.37;;;5.90;;
17528;SDS011;8882;53.192;8.184;2023-01-26T05:50:49;12.37;;;5.60;;
17528;SDS011;8882;53.192;8.184;2023-01-26T05:53:14;15.43;;;6.43;;
17528;SDS011;8882;53.192;8.184;2023-01-26T05:55:40;13.23;;;6.00;;
17528;SDS011;8882;53.192;8.184;2023-01-26T05:58:05;16.80;;;5.53;;
17528;SDS011;8882;53.192;8.184;2023-01-26T06:00:31;15.33;;;6.40;;
17528;SDS011;8882;53.192;8.184;2023-01-26T06:02:56;15.73;;;5.90;;
17528;SDS011;8882;53.192;8.184;2023-01-26T06:05:22;13.43;;;5.90;;
17528;SDS011;8882;53.192;8.184;2023-01-26T06:07:47;17.07;;;6.37;;
17528;SDS011;8882;53.192;8.184;2023-01-26T06:10:13;12.90;;;5.60;;
17528;SDS011;8882;53.192;8.184;2023-01-26T06:12:38;15.17;;;5.20;;
17528;SDS011;8882;53.192;8.184;2023-01-26T06:15:06;13.30;;;5.27;;
17528;SDS011;8882;53.192;8.184;2023-01-26T06:17:33;16.60;;;5.93;;
17528;SDS011;8882;53.192;8.184;2023-01-26T06:19:58;16.13;;;6.20;;
17528;SDS011;8882;53.192;8.184;2023-01-26T06:22:24;12.23;;;5.83;;
17528;SDS011;8882;53.192;8.184;2023-01-26T06:24:49;11.20;;;4.77;;
17528;SDS011;8882;53.192;8.184;2023-01-26T06:27:15;15.10;;;5.60;;
17528;SDS011;8882;53.192;8.184;2023-01-26T06:29:42;13.03;;;5.30;;
17528;SDS011;8882;53.192;8.184;2023-01-26T06:32:09;14.40;;;5.53;;
17528;SDS011;8882;53.192;8.184;2023-01-26T06:34:35;14.30;;;6.30;;
17528;SDS011;8882;53.192;8.184;2023-01-26T06:37:01;12.33;;;5.50;;
17528;SDS011;8882;53.192;8.184;2023-01-26T06:39:26;11.40;;;5.10;;
17528;SDS011;8882;53.192;8.184;2023-01-26T06:41:52;14.40;;;6.77;;
17528;SDS011;8882;53.192;8.184;2023-01-26T06:44:17;14.53;;;6.17;;
17528;SDS011;8882;53.192;8.184;2023-01-26T06:46:43;11.73;;;4.97;;
17528;SDS011;8882;53.192;8.184;2023-01-26T06:49:08;10.20;;;4.90;;
17528;SDS011;8882;53.192;8.184;2023-01-26T06:51:51;11.17;;;4.63;;
17528;SDS011;8882;53.192;8.184;2023-01-26T06:54:20;11.67;;;4.57;;
17528;SDS011;8882;53.192;8.184;2023-01-26T06:56:45;40.50;;;22.52;;
17528;SDS011;8882;53.192;8.184;2023-01-26T06:59:11;24.97;;;12.60;;
17528;SDS011;8882;53.192;8.184;2023-01-26T07:01:38;14.73;;;7.10;;
17528;SDS011;8882;53.192;8.184;2023-01-26T07:04:07;10.00;;;5.03;;
17528;SDS011;8882;53.192;8.184;2023-01-26T07:06:32;8.77;;;4.33;;
17528;SDS011;8882;53.192;8.184;2023-01-26T07:08:58;12.60;;;5.00;;
17528;SDS011;8882;53.192;8.184;2023-01-26T07:11:23;13.27;;;4.53;;
17528;SDS011;8882;53.192;8.184;2023-01-26T07:13:49;8.30;;;4.43;;
17528;SDS011;8882;53.192;8.184;2023-01-26T07:16:16;8.30;;;3.80;;
17528;SDS011;8882;53.192;8.184;2023-01-26T07:18:42;10.10;;;5.20;;
17528;SDS011;8882;53.192;8.184;2023-01-26T07:21:12;8.80;;;4.57;;
17528;SDS011;8882;53.192;8.184;2023-01-26T07:23:39;8.60;;;4.63;;
17528;SDS011;8882;53.192;8.184;2023-01-26T07:26:05;9.07;;;4.90;;
17528;SDS011;8882;53.192;8.184;2023-01-26T07:28:31;10.23;;;4.57;;
17528;SDS011;8882;53.192;8.184;2023-01-26T07:30:58;8.20;;;4.47;;
17528;SDS011;8882;53.192;8.184;2023-01-26T07:33:25;10.63;;;4.90;;
17528;SDS011;8882;53.192;8.184;2023-01-26T07:35:52;8.40;;;5.10;;
17528;SDS011;8882;53.192;8.184;2023-01-26T07:38:18;12.20;;;4.87;;
17528;SDS011;8882;53.192;8.184;2023-01-26T07:40:44;10.57;;;4.63;;
17528;SDS011;8882;53.192;8.184;2023-01-26T07:43:09;10.63;;;4.63;;
17528;SDS011;8882;53.192;8.184;2023-01-26T07:45:35;10.33;;;5.80;;
17528;SDS011;8882;53.192;8.184;2023-01-26T07:48:00;8.27;;;4.57;;
17528;SDS011;8882;53.192;8.184;2023-01-26T07:50:26;12.33;;;4.97;;
17528;SDS011;8882;53.192;8.184;2023-01-26T07:52:51;11.77;;;6.37;;
17528;SDS011;8882;53.192;8.184;2023-01-26T07:55:17;15.13;;;5.47;;
17528;SDS011;8882;53.192;8.184;2023-01-26T07:57:49;14.50;;;6.03;;
17528;SDS011;8882;53.192;8.184;2023-01-26T08:00:15;12.90;;;4.63;;
17528;SDS011;8882;53.192;8.184;2023-01-26T08:02:42;11.37;;;4.83;;
17528;SDS011;8882;53.192;8.184;2023-01-26T08:05:08;16.97;;;6.07;;
17528;SDS011;8882;53.192;8.184;2023-01-26T08:07:34;11.97;;;5.20;;
17528;SDS011;8882;53.192;8.184;2023-01-26T08:09:59;13.07;;;5.77;;
17528;SDS011;8882;53.192;8.184;2023-01-26T08:12:25;11.97;;;4.90;;
17528;SDS011;8882;53.192;8.184;2023-01-26T08:14:51;15.87;;;6.17;;
17528;SDS011;8882;53.192;8.184;2023-01-26T08:17:16;18.23;;;6.10;;
17528;SDS011;8882;53.192;8.184;2023-01-26T08:19:43;15.57;;;5.30;;
17528;SDS011;8882;53.192;8.184;2023-01-26T08:22:09;15.50;;;5.60;;
17528;SDS011;8882;53.192;8.184;2023-01-26T08:24:35;15.83;;;7.03;;
17528;SDS011;8882;53.192;8.184;2023-01-26T08:27:00;16.33;;;6.60;;
17528;SDS011;8882;53.192;8.184;2023-01-26T08:29:26;13.20;;;5.83;;
17528;SDS011;8882;53.192;8.184;2023-01-26T08:31:51;20.43;;;7.07;;
17528;SDS011;8882;53.192;8.184;2023-01-26T08:34:17;12.70;;;7.10;;
17528;SDS011;8882;53.192;8.184;2023-01-26T08:36:45;13.27;;;5.90;;
17528;SDS011;8882;53.192;8.184;2023-01-26T08:39:11;16.00;;;6.73;;
17528;SDS011;8882;53.192;8.184;2023-01-26T08:41:36;16.20;;;6.33;;
17528;SDS011;8882;53.192;8.184;2023-01-26T08:44:03;17.60;;;7.03;;
17528;SDS011;8882;53.192;8.184;2023-01-26T08:46:29;44.20;;;20.80;;
17528;SDS011;8882;53.192;8.184;2023-01-26T08:48:54;54.03;;;23.50;;
17528;SDS011;8882;53.192;8.184;2023-01-26T08:51:19;26.90;;;11.93;;
17528;SDS011;8882;53.192;8.184;2023-01-26T08:53:45;21.37;;;9.57;;
17528;SDS011;8882;53.192;8.184;2023-01-26T08:56:11;23.13;;;7.33;;
17528;SDS011;8882;53.192;8.184;2023-01-26T08:58:37;19.30;;;7.57;;
17528;SDS011;8882;53.192;8.184;2023-01-26T09:01:06;19.90;;;7.90;;
17528;SDS011;8882;53.192;8.184;2023-01-26T09:03:34;22.03;;;8.10;;
17528;SDS011;8882;53.192;8.184;2023-01-26T09:06:00;18.20;;;7.60;;
17528;SDS011;8882;53.192;8.184;2023-01-26T09:08:28;22.77;;;8.17;;
17528;SDS011;8882;53.192;8.184;2023-01-26T09:10:53;18.97;;;7.93;;
17528;SDS011;8882;53.192;8.184;2023-01-26T09:13:19;22.37;;;7.47;;
17528;SDS011;8882;53.192;8.184;2023-01-26T09:15:45;19.73;;;5.47;;
17528;SDS011;8882;53.192;8.184;2023-01-26T09:18:10;17.47;;;6.57;;
17528;SDS011;8882;53.192;8.184;2023-01-26T09:20:36;18.83;;;7.20;;
17528;SDS011;8882;53.192;8.184;2023-01-26T09:23:03;16.13;;;7.43;;
17528;SDS011;8882;53.192;8.184;2023-01-26T09:25:28;14.27;;;6.07;;
17528;SDS011;8882;53.192;8.184;2023-01-26T09:27:54;19.47;;;7.17;;
17528;SDS011;8882;53.192;8.184;2023-01-26T09:30:19;17.53;;;7.13;;
17528;SDS011;8882;53.192;8.184;2023-01-26T09:32:46;19.90;;;7.20;;
17528;SDS011;8882;53.192;8.184;2023-01-26T09:35:12;22.70;;;7.57;;
17528;SDS011;8882;53.192;8.184;2023-01-26T09:37:37;18.37;;;6.23;;
17528;SDS011;8882;53.192;8.184;2023-01-26T09:40:03;15.27;;;7.07;;
17528;SDS011;8882;53.192;8.184;2023-01-26T09:53:17;18.37;;;6.57;;
17528;SDS011;8882;53.192;8.184;2023-01-26T09:55:46;20.97;;;6.80;;
17528;SDS011;8882;53.192;8.184;2023-01-26T09:58:24;16.00;;;7.10;;
17528;SDS011;8882;53.192;8.184;2023-01-26T10:00:59;14.10;;;6.00;;
17528;SDS011;8882;53.192;8.184;2023-01-26T10:06:13;18.83;;;6.37;;
17528;SDS011;8882;53.192;8.184;2023-01-26T10:08:45;17.97;;;6.33;;
17528;SDS011;8882;53.192;8.184;2023-01-26T10:13:51;17.73;;;5.63;;
17528;SDS011;8882;53.192;8.184;2023-01-26T10:16:34;11.90;;;5.57;;
17528;SDS011;8882;53.192;8.184;2023-01-26T10:19:01;14.73;;;5.03;;
17528;SDS011;8882;53.192;8.184;2023-01-26T10:21:32;12.30;;;4.77;;
17528;SDS011;8882;53.192;8.184;2023-01-26T10:24:02;13.93;;;6.23;;
17528;SDS011;8882;53.192;8.184;2023-01-26T10:26:30;14.87;;;5.73;;
17528;SDS011;8882;53.192;8.184;2023-01-26T10:28:57;20.40;;;6.03;;
17528;SDS011;8882;53.192;8.184;2023-01-26T10:31:25;21.07;;;6.60;;
17528;SDS011;8882;53.192;8.184;2023-01-26T10:34:09;10.77;;;5.83;;
17528;SDS011;8882;53.192;8.184;2023-01-26T10:36:39;10.87;;;5.50;;
17528;SDS011;8882;53.192;8.184;2023-01-26T10:39:10;14.20;;;6.33;;
17528;SDS011;8882;53.192;8.184;2023-01-26T10:41:37;19.60;;;6.10;;
17528;SDS011;8882;53.192;8.184;2023-01-26T10:46:36;14.20;;;4.77;;
17528;SDS011;8882;53.192;8.184;2023-01-26T10:51:42;10.93;;;4.70;;
17528;SDS011;8882;53.192;8.184;2023-01-26T10:54:19;10.97;;;4.00;;
17528;SDS011;8882;53.192;8.184;2023-01-26T10:56:51;15.43;;;6.27;;
17528;SDS011;8882;53.192;8.184;2023-01-26T10:59:31;17.63;;;5.03;;
17528;SDS011;8882;53.192;8.184;2023-01-26T11:02:16;16.00;;;5.17;;
17528;SDS011;8882;53.192;8.184;2023-01-26T11:05:00;17.53;;;5.40;;
17528;SDS011;8882;53.192;8.184;2023-01-26T11:07:39;13.53;;;5.40;;
17528;SDS011;8882;53.192;8.184;2023-01-26T11:10:39;18.67;;;5.63;;
17528;SDS011;8882;53.192;8.184;2023-01-26T11:13:06;25.00;;;4.87;;
17528;SDS011;8882;53.192;8.184;2023-01-26T11:15:36;15.53;;;5.03;;
17528;SDS011;8882;53.192;8.184;2023-01-26T11:18:21;17.37;;;4.57;;
17528;SDS011;8882;53.192;8.184;2023-01-26T11:21:40;18.67;;;4.63;;
17528;SDS011;8882;53.192;8.184;2023-01-26T11:24:09;16.33;;;5.27;;
17528;SDS011;8882;53.192;8.184;2023-01-26T11:29:22;12.23;;;3.90;;
17528;SDS011;8882;53.192;8.184;2023-01-26T11:34:57;18.77;;;4.43;;
17528;SDS011;8882;53.192;8.184;2023-01-26T11:37:56;14.30;;;3.80;;
17528;SDS011;8882;53.192;8.184;2023-01-26T11:40:47;23.43;;;3.43;;
17528;SDS011;8882;53.192;8.184;2023-01-26T11:52:05;17.50;;;3.83;;
17528;SDS011;8882;53.192;8.184;2023-01-26T12:00:53;10.50;;;3.13;;
17528;SDS011;8882;53.192;8.184;2023-01-26T12:05:53;16.60;;;3.27;;
17528;SDS011;8882;53.192;8.184;2023-01-26T12:08:42;12.30;;;2.97;;
17528;SDS011;8882;53.192;8.184;2023-01-26T12:11:57;14.30;;;3.43;;
17528;SDS011;8882;53.192;8.184;2023-01-26T12:16:57;14.60;;;3.00;;
17528;SDS011;8882;53.192;8.184;2023-01-26T12:19:42;15.67;;;3.10;;
17528;SDS011;8882;53.192;8.184;2023-01-26T12:22:37;13.67;;;2.87;;
17528;SDS011;8882;53.192;8.184;2023-01-26T12:25:13;13.87;;;2.20;;
17528;SDS011;8882;53.192;8.184;2023-01-26T12:27:48;18.97;;;3.50;;
17528;SDS011;8882;53.192;8.184;2023-01-26T12:30:22;15.20;;;2.10;;
17528;SDS011;8882;53.192;8.184;2023-01-26T12:32:49;16.40;;;2.53;;
17528;SDS011;8882;53.192;8.184;2023-01-26T12:35:17;12.20;;;2.17;;
17528;SDS011;8882;53.192;8.184;2023-01-26T12:37:57;8.33;;;1.80;;
17528;SDS011;8882;53.192;8.184;2023-01-26T12:43:34;9.33;;;1.60;;
17528;SDS011;8882;53.192;8.184;2023-01-26T12:46:13;10.07;;;1.63;;
17528;SDS011;8882;53.192;8.184;2023-01-26T12:48:41;10.77;;;1.73;;
17528;SDS011;8882;53.192;8.184;2023-01-26T12:51:16;11.47;;;1.93;;
17528;SDS011;8882;53.192;8.184;2023-01-26T12:56:34;6.37;;;1.40;;
17528;SDS011;8882;53.192;8.184;2023-01-26T12:59:14;8.97;;;1.67;;
17528;SDS011;8882;53.192;8.184;2023-01-26T13:01:54;6.93;;;1.47;;
17528;SDS011;8882;53.192;8.184;2023-01-26T13:04:20;15.23;;;1.37;;
17528;SDS011;8882;53.192;8.184;2023-01-26T13:06:59;6.90;;;1.70;;
17528;SDS011;8882;53.192;8.184;2023-01-26T13:09:26;6.27;;;1.47;;
17528;SDS011;8882;53.192;8.184;2023-01-26T13:11:52;10.97;;;1.40;;
17528;SDS011;8882;53.192;8.184;2023-01-26T13:14:23;7.07;;;1.83;;
17528;SDS011;8882;53.192;8.184;2023-01-26T13:16:55;8.03;;;1.77;;
17528;SDS011;8882;53.192;8.184;2023-01-26T13:25:03;8.30;;;1.30;;
17528;SDS011;8882;53.192;8.184;2023-01-26T13:27:44;9.13;;;1.30;;
17528;SDS011;8882;53.192;8.184;2023-01-26T13:33:03;1.60;;;1.10;;
17528;SDS011;8882;53.192;8.184;2023-01-26T13:35:35;4.03;;;1.33;;
17528;SDS011;8882;53.192;8.184;2023-01-26T13:40:35;4.90;;;1.10;;
17528;SDS011;8882;53.192;8.184;2023-01-26T13:45:55;6.53;;;2.20;;
17528;SDS011;8882;53.192;8.184;2023-01-26T13:51:11;4.07;;;1.50;;
17528;SDS011;8882;53.192;8.184;2023-01-26T13:53:59;10.23;;;1.80;;
17528;SDS011;8882;53.192;8.184;2023-01-26T13:59:29;6.33;;;1.40;;
17528;SDS011;8882;53.192;8.184;2023-01-26T14:01:49;9.20;;;1.40;;
17528;SDS011;8882;53.192;8.184;2023-01-26T14:04:23;5.40;;;1.33;;
17528;SDS011;8882;53.192;8.184;2023-01-26T14:06:55;4.00;;;1.00;;
17528;SDS011;8882;53.192;8.184;2023-01-26T14:09:28;3.00;;;1.20;;
17528;SDS011;8882;53.192;8.184;2023-01-26T14:12:00;5.63;;;1.07;;
17528;SDS011;8882;53.192;8.184;2023-01-26T14:14:28;5.13;;;1.10;;
17528;SDS011;8882;53.192;8.184;2023-01-26T14:16:57;8.90;;;1.10;;
17528;SDS011;8882;53.192;8.184;2023-01-26T14:19:24;6.90;;;1.40;;
17528;SDS011;8882;53.192;8.184;2023-01-26T14:21:57;5.47;;;1.13;;
17528;SDS011;8882;53.192;8.184;2023-01-26T14:24:37;5.83;;;1.30;;
17528;SDS011;8882;53.192;8.184;2023-01-26T14:27:05;5.77;;;1.03;;
17528;SDS011;8882;53.192;8.184;2023-01-26T14:29:45;6.93;;;1.10;;
17528;SDS011;8882;53.192;8.184;2023-01-26T14:32:15;6.07;;;1.03;;
17528;SDS011;8882;53.192;8.184;2023-01-26T14:34:50;5.20;;;1.33;;
17528;SDS011;8882;53.192;8.184;2023-01-26T14:37:22;6.00;;;1.50;;
17528;SDS011;8882;53.192;8.184;2023-01-26T14:39:49;7.00;;;1.37;;
17528;SDS011;8882;53.192;8.184;2023-01-26T14:42:34;4.60;;;0.87;;
17528;SDS011;8882;53.192;8.184;2023-01-26T14:45:00;3.80;;;1.17;;
17528;SDS011;8882;53.192;8.184;2023-01-26T14:47:27;7.77;;;1.10;;
17528;SDS011;8882;53.192;8.184;2023-01-26T14:49:59;4.93;;;0.90;;
17528;SDS011;8882;53.192;8.184;2023-01-26T14:52:35;4.10;;;0.70;;
17528;SDS011;8882;53.192;8.184;2023-01-26T14:55:04;5.53;;;1.20;;
17528;SDS011;8882;53.192;8.184;2023-01-26T14:57:46;6.13;;;1.13;;
17528;SDS011;8882;53.192;8.184;2023-01-26T15:00:18;4.63;;;1.17;;
17528;SDS011;8882;53.192;8.184;2023-01-26T15:02:58;2.23;;;0.93;;
17528;SDS011;8882;53.192;8.184;2023-01-26T15:05:36;6.23;;;1.30;;
17528;SDS011;8882;53.192;8.184;2023-01-26T15:08:04;6.50;;;1.10;;
17528;SDS011;8882;53.192;8.184;2023-01-26T15:13:39;7.60;;;1.20;;
17528;SDS011;8882;53.192;8.184;2023-01-26T15:16:10;3.37;;;1.97;;
17528;SDS011;8882;53.192;8.184;2023-01-26T15:18:40;2.00;;;1.20;;
17528;SDS011;8882;53.192;8.184;2023-01-26T15:21:18;5.53;;;1.63;;
17528;SDS011;8882;53.192;8.184;2023-01-26T15:23:49;6.40;;;1.43;;
17528;SDS011;8882;53.192;8.184;2023-01-26T15:28:55;6.93;;;1.20;;
17528;SDS011;8882;53.192;8.184;2023-01-26T15:31:29;5.40;;;1.30;;
17528;SDS011;8882;53.192;8.184;2023-01-26T15:33:58;6.67;;;1.50;;
17528;SDS011;8882;53.192;8.184;2023-01-26T15:39:00;9.70;;;1.30;;
17528;SDS011;8882;53.192;8.184;2023-01-26T15:41:28;5.63;;;1.60;;
17528;SDS011;8882;53.192;8.184;2023-01-26T15:43:55;2.73;;;1.50;;
17528;SDS011;8882;53.192;8.184;2023-01-26T15:46:21;3.67;;;1.40;;
17528;SDS011;8882;53.192;8.184;2023-01-26T15:48:47;8.23;;;1.30;;
17528;SDS011;8882;53.192;8.184;2023-01-26T15:51:13;4.03;;;0.97;;
17528;SDS011;8882;53.192;8.184;2023-01-26T15:53:39;4.70;;;1.20;;
17528;SDS011;8882;53.192;8.184;2023-01-26T15:56:05;3.33;;;1.47;;
17528;SDS011;8882;53.192;8.184;2023-01-26T15:58:35;4.30;;;1.97;;
17528;SDS011;8882;53.192;8.184;2023-01-26T16:01:00;3.97;;;1.43;;
17528;SDS011;8882;53.192;8.184;2023-01-26T16:03:26;10.13;;;2.13;;
17528;SDS011;8882;53.192;8.184;2023-01-26T16:05:52;6.10;;;2.07;;
17528;SDS011;8882;53.192;8.184;2023-01-26T16:08:18;8.67;;;1.30;;
17528;SDS011;8882;53.192;8.184;2023-01-26T16:10:44;2.10;;;1.30;;
17528;SDS011;8882;53.192;8.184;2023-01-26T16:13:11;4.40;;;1.47;;
17528;SDS011;8882;53.192;8.184;2023-01-26T16:15:39;5.37;;;1.47;;
17528;SDS011;8882;53.192;8.184;2023-01-26T16:18:07;4.30;;;1.20;;
17528;SDS011;8882;53.192;8.184;2023-01-26T16:20:33;2.63;;;1.27;;
17528;SDS011;8882;53.192;8.184;2023-01-26T16:23:01;2.73;;;1.03;;
17528;SDS011;8882;53.192;8.184;2023-01-26T16:25:28;7.43;;;1.87;;
17528;SDS011;8882;53.192;8.184;2023-01-26T16:27:55;6.27;;;1.67;;
17528;SDS011;8882;53.192;8.184;2023-01-26T16:30:21;7.93;;;2.10;;
17528;SDS011;8882;53.192;8.184;2023-01-26T16:32:47;3.10;;;1.70;;
17528;SDS011;8882;53.192;8.184;2023-01-26T16:35:20;6.10;;;1.90;;
17528;SDS011;8882;53.192;8.184;2023-01-26T16:37:46;7.33;;;1.63;;
17528;SDS011;8882;53.192;8.184;2023-01-26T16:40:14;4.07;;;1.50;;
17528;SDS011;8882;53.192;8.184;2023-01-26T16:42:43;3.50;;;1.57;;
17528;SDS011;8882;53.192;8.184;2023-01-26T16:45:17;5.80;;;1.67;;
17528;SDS011;8882;53.192;8.184;2023-01-26T16:47:44;6.37;;;1.90;;
17528;SDS011;8882;53.192;8.184;2023-01-26T16:50:14;9.10;;;1.77;;
17528;SDS011;8882;53.192;8.184;2023-01-26T16:52:39;2.70;;;1.73;;
17528;SDS011;8882;53.192;8.184;2023-01-26T16:55:05;6.17;;;1.70;;
17528;SDS011;8882;53.192;8.184;2023-01-26T16:57:36;5.60;;;2.03;;
17528;SDS011;8882;53.192;8.184;2023-01-26T17:00:03;6.83;;;1.80;;
17528;SDS011;8882;53.192;8.184;2023-01-26T17:02:30;5.20;;;1.80;;
17528;SDS011;8882;53.192;8.184;2023-01-26T17:04:58;4.97;;;1.87;;
17528;SDS011;8882;53.192;8.184;2023-01-26T17:07:23;7.90;;;2.00;;
17528;SDS011;8882;53.192;8.184;2023-01-26T17:09:49;6.97;;;1.40;;
17528;SDS011;8882;53.192;8.184;2023-01-26T17:12:14;3.53;;;1.33;;
17528;SDS011;8882;53.192;8.184;2023-01-26T17:14:40;6.50;;;1.13;;
17528;SDS011;8882;53.192;8.184;2023-01-26T17:17:06;5.33;;;1.53;;
17528;SDS011;8882;53.192;8.184;2023-01-26T17:19:33;4.10;;;1.80;;
17528;SDS011;8882;53.192;8.184;2023-01-26T17:21:58;7.20;;;1.90;;
17528;SDS011;8882;53.192;8.184;2023-01-26T17:24:24;6.37;;;1.90;;
17528;SDS011;8882;53.192;8.184;2023-01-26T17:26:49;4.47;;;2.47;;
17528;SDS011;8882;53.192;8.184;2023-01-26T17:29:15;3.00;;;1.60;;
17528;SDS011;8882;53.192;8.184;2023-01-26T17:31:40;6.97;;;2.53;;
17528;SDS011;8882;53.192;8.184;2023-01-26T17:34:06;7.63;;;2.80;;
17528;SDS011;8882;53.192;8.184;2023-01-26T17:36:32;5.83;;;2.17;;
17528;SDS011;8882;53.192;8.184;2023-01-26T17:38:57;6.10;;;2.00;;
17528;SDS011;8882;53.192;8.184;2023-01-26T17:41:23;7.80;;;2.23;;
17528;SDS011;8882;53.192;8.184;2023-01-26T17:43:48;6.50;;;1.50;;
17528;SDS011;8882;53.192;8.184;2023-01-26T17:46:16;3.37;;;1.53;;
17528;SDS011;8882;53.192;8.184;2023-01-26T17:48:43;8.53;;;1.60;;
17528;SDS011;8882;53.192;8.184;2023-01-26T17:51:13;6.17;;;1.87;;
17528;SDS011;8882;53.192;8.184;2023-01-26T17:53:41;10.83;;;2.50;;
17528;SDS011;8882;53.192;8.184;2023-01-26T17:56:09;12.20;;;2.30;;
17528;SDS011;8882;53.192;8.184;2023-01-26T17:58:37;6.63;;;2.23;;
17528;SDS011;8882;53.192;8.184;2023-01-26T18:01:03;6.93;;;1.77;;
17528;SDS011;8882;53.192;8.184;2023-01-26T18:03:30;7.03;;;1.90;;
17528;SDS011;8882;53.192;8.184;2023-01-26T18:05:56;5.67;;;1.80;;
17528;SDS011;8882;53.192;8.184;2023-01-26T18:08:22;5.40;;;1.90;;
17528;SDS011;8882;53.192;8.184;2023-01-26T18:10:48;12.17;;;2.47;;
17528;SDS011;8882;53.192;8.184;2023-01-26T18:13:14;8.37;;;2.00;;
17528;SDS011;8882;53.192;8.184;2023-01-26T18:15:42;8.10;;;1.93;;
17528;SDS011;8882;53.192;8.184;2023-01-26T18:18:09;10.70;;;2.63;;
17528;SDS011;8882;53.192;8.184;2023-01-26T18:20:35;10.73;;;3.27;;
17528;SDS011;8882;53.192;8.184;2023-01-26T18:23:01;7.43;;;2.00;;
17528;SDS011;8882;53.192;8.184;2023-01-26T18:25:26;7.93;;;2.40;;
17528;SDS011;8882;53.192;8.184;2023-01-26T18:27:52;9.20;;;2.00;;
17528;SDS011;8882;53.192;8.184;2023-01-26T18:30:18;9.63;;;2.23;;
17528;SDS011;8882;53.192;8.184;2023-01-26T18:32:44;7.57;;;2.80;;
17528;SDS011;8882;53.192;8.184;2023-01-26T18:35:09;8.07;;;2.57;;
17528;SDS011;8882;53.192;8.184;2023-01-26T18:37:35;10.93;;;2.50;;
17528;SDS011;8882;53.192;8.184;2023-01-26T18:40:00;8.27;;;2.47;;
17528;SDS011;8882;53.192;8.184;2023-01-26T18:42:28;7.50;;;2.90;;
17528;SDS011;8882;53.192;8.184;2023-01-26T18:44:54;7.00;;;2.33;;
17528;SDS011;8882;53.192;8.184;2023-01-26T18:47:25;12.87;;;2.73;;
17528;SDS011;8882;53.192;8.184;2023-01-26T18:49:51;3.73;;;2.33;;
17528;SDS011;8882;53.192;8.184;2023-01-26T18:52:17;5.03;;;2.67;;
17528;SDS011;8882;53.192;8.184;2023-01-26T18:54:43;5.37;;;2.23;;
17528;SDS011;8882;53.192;8.184;2023-01-26T18:57:09;15.80;;;3.43;;
17528;SDS011;8882;53.192;8.184;2023-01-26T18:59:34;6.27;;;3.03;;
17528;SDS011;8882;53.192;8.184;2023-01-26T19:02:00;11.13;;;2.73;;
17528;SDS011;8882;53.192;8.184;2023-01-26T19:04:26;6.43;;;2.20;;
17528;SDS011;8882;53.192;8.184;2023-01-26T19:06:52;11.27;;;3.67;;
17528;SDS011;8882;53.192;8.184;2023-01-26T19:09:17;14.13;;;3.97;;
17528;SDS011;8882;53.192;8.184;2023-01-26T19:11:43;17.47;;;4.07;;
17528;SDS011;8882;53.192;8.184;2023-01-26T19:14:08;9.67;;;3.70;;
17528;SDS011;8882;53.192;8.184;2023-01-26T19:16:34;8.47;;;3.60;;
17528;SDS011;8882;53.192;8.184;2023-01-26T19:19:00;13.67;;;4.00;;
17528;SDS011;8882;53.192;8.184;2023-01-26T19:21:26;13.27;;;5.17;;
17528;SDS011;8882;53.192;8.184;2023-01-26T19:23:52;12.67;;;3.80;;
17528;SDS011;8882;53.192;8.184;2023-01-26T19:26:23;16.73;;;4.30;;
17528;SDS011;8882;53.192;8.184;2023-01-26T19:28:52;11.63;;;4.97;;
17528;SDS011;8882;53.192;8.184;2023-01-26T19:31:18;10.83;;;4.83;;
17528;SDS011;8882;53.192;8.184;2023-01-26T19:34:04;10.10;;;4.07;;
17528;SDS011;8882;53.192;8.184;2023-01-26T19:36:31;10.57;;;4.30;;
17528;SDS011;8882;53.192;8.184;2023-01-26T19:38:59;11.73;;;4.47;;
17528;SDS011;8882;53.192;8.184;2023-01-26T19:41:26;10.83;;;4.23;;
17528;SDS011;8882;53.192;8.184;2023-01-26T19:43:52;19.33;;;5.27;;
17528;SDS011;8882;53.192;8.184;2023-01-26T19:46:18;13.37;;;4.60;;
17528;SDS011;8882;53.192;8.184;2023-01-26T19:48:44;13.27;;;5.90;;
17528;SDS011;8882;53.192;8.184;2023-01-26T19:51:11;11.43;;;4.90;;
17528;SDS011;8882;53.192;8.184;2023-01-26T19:53:39;13.70;;;5.80;;
17528;SDS011;8882;53.192;8.184;2023-01-26T19:56:07;16.70;;;5.20;;
17528;SDS011;8882;53.192;8.184;2023-01-26T19:58:34;12.70;;;4.83;;
17528;SDS011;8882;53.192;8.184;2023-01-26T20:01:01;11.13;;;4.90;;
17528;SDS011;8882;53.192;8.184;2023-01-26T20:03:28;12.07;;;4.97;;
17528;SDS011;8882;53.192;8.184;2023-01-26T20:05:54;11.60;;;4.77;;
17528;SDS011;8882;53.192;8.184;2023-01-26T20:08:20;10.97;;;4.80;;
17528;SDS011;8882;53.192;8.184;2023-01-26T20:10:45;10.07;;;5.13;;
17528;SDS011;8882;53.192;8.184;2023-01-26T20:13:11;9.63;;;4.40;;
17528;SDS011;8882;53.192;8.184;2023-01-26T20:15:36;10.27;;;4.87;;
17528;SDS011;8882;53.192;8.184;2023-01-26T20:18:02;8.60;;;4.13;;
17528;SDS011;8882;53.192;8.184;2023-01-26T20:20:28;9.47;;;4.57;;
17528;SDS011;8882;53.192;8.184;2023-01-26T20:22:53;8.10;;;4.50;;
17528;SDS011;8882;53.192;8.184;2023-01-26T20:25:19;11.57;;;4.47;;
17528;SDS011;8882;53.192;8.184;2023-01-26T20:27:44;8.70;;;4.23;;
17528;SDS011;8882;53.192;8.184;2023-01-26T20:30:10;11.77;;;5.03;;
17528;SDS011;8882;53.192;8.184;2023-01-26T20:32:36;12.37;;;4.20;;
17528;SDS011;8882;53.192;8.184;2023-01-26T20:35:03;9.93;;;4.90;;
17528;SDS011;8882;53.192;8.184;2023-01-26T20:37:30;11.27;;;4.63;;
17528;SDS011;8882;53.192;8.184;2023-01-26T20:39:56;8.43;;;4.40;;
17528;SDS011;8882;53.192;8.184;2023-01-26T20:42:21;8.47;;;4.80;;
17528;SDS011;8882;53.192;8.184;2023-01-26T20:44:47;9.90;;;5.63;;
17528;SDS011;8882;53.192;8.184;2023-01-26T20:47:12;10.30;;;5.23;;
17528;SDS011;8882;53.192;8.184;2023-01-26T20:49:38;12.13;;;4.53;;
17528;SDS011;8882;53.192;8.184;2023-01-26T20:52:04;12.53;;;4.60;;
17528;SDS011;8882;53.192;8.184;2023-01-26T20:54:32;10.90;;;4.70;;
17528;SDS011;8882;53.192;8.184;2023-01-26T20:57:01;6.37;;;4.37;;
17528;SDS011;8882;53.192;8.184;2023-01-26T20:59:27;9.37;;;4.30;;
17528;SDS011;8882;53.192;8.184;2023-01-26T21:01:53;12.87;;;5.23;;
17528;SDS011;8882;53.192;8.184;2023-01-26T21:04:19;12.87;;;5.10;;
17528;SDS011;8882;53.192;8.184;2023-01-26T21:06:45;10.27;;;4.97;;
17528;SDS011;8882;53.192;8.184;2023-01-26T21:09:10;7.20;;;4.27;;
17528;SDS011;8882;53.192;8.184;2023-01-26T21:11:36;10.63;;;5.07;;
17528;SDS011;8882;53.192;8.184;2023-01-26T21:14:01;7.73;;;5.27;;
17528;SDS011;8882;53.192;8.184;2023-01-26T21:16:28;10.50;;;5.17;;
17528;SDS011;8882;53.192;8.184;2023-01-26T21:18:54;12.10;;;5.60;;
17528;SDS011;8882;53.192;8.184;2023-01-26T21:21:20;7.37;;;5.23;;
17528;SDS011;8882;53.192;8.184;2023-01-26T21:23:46;11.03;;;5.93;;
17528;SDS011;8882;53.192;8.184;2023-01-26T21:26:13;10.60;;;5.43;;
17528;SDS011;8882;53.192;8.184;2023-01-26T21:28:41;9.90;;;4.97;;
17528;SDS011;8882;53.192;8.184;2023-01-26T21:31:13;9.33;;;5.90;;
17528;SDS011;8882;53.192;8.184;2023-01-26T21:33:40;11.27;;;5.90;;
17528;SDS011;8882;53.192;8.184;2023-01-26T21:36:10;11.03;;;5.53;;
17528;SDS011;8882;53.192;8.184;2023-01-26T21:38:41;12.80;;;5.83;;
17528;SDS011;8882;53.192;8.184;2023-01-26T21:41:09;14.40;;;5.07;;
17528;SDS011;8882;53.192;8.184;2023-01-26T21:44:02;11.20;;;5.70;;
17528;SDS011;8882;53.192;8.184;2023-01-26T21:46:28;15.17;;;5.67;;
17528;SDS011;8882;53.192;8.184;2023-01-26T21:48:54;13.80;;;5.93;;
17528;SDS011;8882;53.192;8.184;2023-01-26T21:51:19;10.67;;;6.03;;
17528;SDS011;8882;53.192;8.184;2023-01-26T21:54:04;10.93;;;5.40;;